createdAt,value
2022-10-30T00:01:21.004Z,16.80
2022-10-30T00:03:48.732Z,11.25
2022-10-30T00:08:48.819Z,9.23
2022-10-30T00:11:16.310Z,14.00
2022-10-30T00:13:44.869Z,11.75
2022-10-30T00:16:12.704Z,14.48
2022-10-30T00:18:42.275Z,12.82
2022-10-30T00:21:13.953Z,9.65
2022-10-30T00:23:49.952Z,11.60
2022-10-30T00:26:18.882Z,12.65
2022-10-30T00:28:54.529Z,16.12
2022-10-30T00:31:22.616Z,12.15
2022-10-30T00:33:54.072Z,12.93
2022-10-30T00:36:23.678Z,14.02
2022-10-30T00:38:51.615Z,13.02
2022-10-30T00:41:23.136Z,11.65
2022-10-30T00:43:51.317Z,10.63
2022-10-30T00:46:37.732Z,15.32
2022-10-30T00:49:14.302Z,11.80
2022-10-30T00:51:45.138Z,12.15
2022-10-30T00:54:14.750Z,12.52
2022-10-30T00:56:42.743Z,13.45
2022-10-30T00:59:14.210Z,12.63
2022-10-30T01:01:44.697Z,11.27
2022-10-30T01:04:13.377Z,12.88
2022-10-30T01:06:43.279Z,9.23
2022-10-30T01:09:11.074Z,13.43
2022-10-30T01:11:38.541Z,10.50
2022-10-30T01:14:07.548Z,8.05
2022-10-30T01:16:35.236Z,10.52
2022-10-30T01:19:14.354Z,11.73
2022-10-30T01:22:18.087Z,10.80
2022-10-30T01:25:03.001Z,10.98
2022-10-30T01:27:37.669Z,14.35
2022-10-30T01:30:15.294Z,10.20
2022-10-30T01:32:55.257Z,7.60
2022-10-30T01:35:24.356Z,10.25
2022-10-30T01:37:59.468Z,11.88
2022-10-30T01:40:27.130Z,11.63
2022-10-30T01:42:57.487Z,10.50
2022-10-30T01:45:43.857Z,10.73
2022-10-30T01:48:23.665Z,11.68
2022-10-30T01:51:04.063Z,9.77
2022-10-30T01:53:37.667Z,12.25
2022-10-30T01:56:20.181Z,10.10
2022-10-30T01:59:03.498Z,12.15
2022-10-30T02:01:33.341Z,10.48
2022-10-30T02:06:36.753Z,8.70
2022-10-30T02:09:05.728Z,8.45
2022-10-30T02:11:34.123Z,7.53
2022-10-30T02:14:05.263Z,11.18
2022-10-30T02:16:35.969Z,8.57
2022-10-30T02:19:03.454Z,13.15
2022-10-30T02:21:30.868Z,8.70
2022-10-30T02:23:58.542Z,9.10
2022-10-30T02:26:26.639Z,8.85
2022-10-30T02:28:54.122Z,9.43
2022-10-30T02:31:21.554Z,10.15
2022-10-30T02:33:49.600Z,6.68
2022-10-30T02:36:17.011Z,7.90
2022-10-30T02:38:44.688Z,6.05
2022-10-30T02:41:13.137Z,9.45
2022-10-30T02:43:40.679Z,7.80
2022-10-30T02:46:09.046Z,9.43
2022-10-30T02:48:36.852Z,11.07
2022-10-30T02:51:04.682Z,9.02
2022-10-30T02:53:34.187Z,7.97
2022-10-30T02:56:09.731Z,9.00
2022-10-30T03:01:06.820Z,8.30
2022-10-30T03:03:34.597Z,5.55
2022-10-30T03:06:03.634Z,7.68
2022-10-30T03:08:31.365Z,6.82
2022-10-30T03:11:03.904Z,6.37
2022-10-30T03:13:32.734Z,9.15
2022-10-30T03:16:05.832Z,9.95
2022-10-30T03:18:33.767Z,10.07
2022-10-30T03:21:05.212Z,11.63
2022-10-30T03:23:33.434Z,10.88
2022-10-30T03:26:02.076Z,12.27
2022-10-30T03:28:31.367Z,8.80
2022-10-30T03:31:01.317Z,10.27
2022-10-30T03:33:29.130Z,10.00
2022-10-30T03:35:57.566Z,9.05
2022-10-30T03:38:25.854Z,9.82
2022-10-30T03:40:53.699Z,7.20
2022-10-30T03:43:21.841Z,8.30
2022-10-30T03:45:51.863Z,11.60
2022-10-30T03:48:21.252Z,8.75
2022-10-30T03:50:49.028Z,6.20
2022-10-30T03:53:16.471Z,6.20
2022-10-30T03:55:43.910Z,7.12
2022-10-30T03:58:12.759Z,7.20
2022-10-30T04:00:41.323Z,7.62
2022-10-30T04:03:09.996Z,6.97
2022-10-30T04:05:37.955Z,8.35
2022-10-30T04:08:08.184Z,7.97
2022-10-30T04:10:36.038Z,9.43
2022-10-30T04:13:06.050Z,5.85
2022-10-30T04:15:34.447Z,7.45
2022-10-30T04:18:02.562Z,7.68
2022-10-30T04:20:30.572Z,5.97
2022-10-30T04:23:00.071Z,5.95
2022-10-30T04:25:29.229Z,3.92
2022-10-30T04:27:57.368Z,4.97
2022-10-30T04:30:27.941Z,6.70
2022-10-30T04:32:56.883Z,5.75
2022-10-30T04:35:27.003Z,5.72
2022-10-30T04:38:04.572Z,6.00
2022-10-30T04:40:34.787Z,4.37
2022-10-30T04:43:05.671Z,4.37
2022-10-30T04:45:34.076Z,7.07
2022-10-30T04:48:19.641Z,5.53
2022-10-30T04:50:47.550Z,6.12
2022-10-30T04:53:18.126Z,4.82
2022-10-30T04:55:46.098Z,5.12
2022-10-30T04:58:14.192Z,6.57
2022-10-30T05:00:43.260Z,4.20
2022-10-30T05:03:24.210Z,4.55
2022-10-30T05:05:58.516Z,4.90
2022-10-30T05:08:26.196Z,4.95
2022-10-30T05:10:54.256Z,4.37
2022-10-30T05:13:21.723Z,4.95
2022-10-30T05:15:49.284Z,4.82
2022-10-30T05:18:17.087Z,6.82
2022-10-30T05:20:47.071Z,5.03
2022-10-30T05:23:14.544Z,5.55
2022-10-30T05:25:42.357Z,5.62
2022-10-30T05:28:11.251Z,4.50
2022-10-30T05:30:39.229Z,4.53
2022-10-30T05:33:09.676Z,4.40
2022-10-30T05:35:37.570Z,5.72
2022-10-30T05:38:07.299Z,5.55
2022-10-30T05:40:35.597Z,3.45
2022-10-30T05:43:03.857Z,5.50
2022-10-30T05:45:31.369Z,6.20
2022-10-30T05:48:01.970Z,3.67
2022-10-30T05:50:31.532Z,4.03
2022-10-30T05:53:10.205Z,4.10
2022-10-30T05:55:38.879Z,6.15
2022-10-30T05:58:07.089Z,5.82
2022-10-30T06:00:36.625Z,4.78
2022-10-30T06:03:06.370Z,5.32
2022-10-30T06:05:35.676Z,3.65
2022-10-30T06:08:04.423Z,4.25
2022-10-30T06:10:33.455Z,4.70
2022-10-30T06:13:04.169Z,4.37
2022-10-30T06:15:32.685Z,6.47
2022-10-30T06:18:00.770Z,6.78
2022-10-30T06:20:30.789Z,7.20
2022-10-30T06:23:05.679Z,7.75
2022-10-30T06:25:40.759Z,5.30
2022-10-30T06:30:37.917Z,6.07
2022-10-30T06:33:07.197Z,6.12
2022-10-30T06:35:35.468Z,3.72
2022-10-30T06:38:03.624Z,6.28
2022-10-30T06:40:31.260Z,5.95
2022-10-30T06:42:59.612Z,5.50
2022-10-30T06:45:27.514Z,4.85
2022-10-30T06:47:55.263Z,5.25
2022-10-30T06:50:24.264Z,6.30
2022-10-30T06:52:52.007Z,4.05
2022-10-30T06:55:19.476Z,8.35
2022-10-30T06:57:54.240Z,4.68
2022-10-30T07:00:22.549Z,5.47
2022-10-30T07:03:02.226Z,7.47
2022-10-30T07:05:30.480Z,6.70
2022-10-30T07:07:58.457Z,6.53
2022-10-30T07:10:25.921Z,4.87
2022-10-30T07:12:56.417Z,6.53
2022-10-30T07:15:28.601Z,6.47
2022-10-30T07:18:00.964Z,6.45
2022-10-30T07:20:32.410Z,6.75
2022-10-30T07:23:00.270Z,6.78
2022-10-30T07:25:27.914Z,7.70
2022-10-30T07:27:57.014Z,7.15
2022-10-30T07:33:04.561Z,7.25
2022-10-30T07:35:33.588Z,7.62
2022-10-30T07:38:04.127Z,4.43
2022-10-30T07:40:33.492Z,7.25
2022-10-30T07:43:02.554Z,6.40
2022-10-30T07:45:32.088Z,8.18
2022-10-30T07:48:00.857Z,6.60
2022-10-30T07:50:29.429Z,7.55
2022-10-30T07:52:57.201Z,6.47
2022-10-30T07:55:24.816Z,7.00
2022-10-30T07:57:53.429Z,6.03
2022-10-30T08:00:22.801Z,6.85
2022-10-30T08:02:52.132Z,4.85
2022-10-30T08:05:19.965Z,6.25
2022-10-30T08:07:48.357Z,7.28
2022-10-30T08:10:16.322Z,7.00
2022-10-30T08:12:45.854Z,8.10
2022-10-30T08:15:13.596Z,6.15
2022-10-30T08:17:42.874Z,6.45
2022-10-30T08:20:11.929Z,7.50
2022-10-30T08:22:50.258Z,5.60
2022-10-30T08:25:20.950Z,9.00
2022-10-30T08:27:59.679Z,7.45
2022-10-30T08:30:30.314Z,6.62
2022-10-30T08:33:02.978Z,8.02
2022-10-30T08:35:33.116Z,5.67
2022-10-30T08:38:02.997Z,7.45
2022-10-30T08:40:31.368Z,7.00
2022-10-30T08:42:59.256Z,5.75
2022-10-30T08:45:29.976Z,6.45
2022-10-30T08:48:01.341Z,5.55
2022-10-30T08:50:29.915Z,6.57
2022-10-30T08:53:02.312Z,8.00
2022-10-30T08:55:31.782Z,7.03
2022-10-30T08:58:00.841Z,7.75
2022-10-30T09:00:28.619Z,8.82
2022-10-30T09:02:58.607Z,5.45
2022-10-30T09:05:28.563Z,7.28
2022-10-30T09:08:01.501Z,8.75
2022-10-30T09:10:34.290Z,7.97
2022-10-30T09:13:04.491Z,6.53
2022-10-30T09:15:32.235Z,6.28
2022-10-30T09:18:04.400Z,6.78
2022-10-30T09:20:32.199Z,8.30
2022-10-30T09:23:00.158Z,6.47
2022-10-30T09:25:27.798Z,9.07
2022-10-30T09:27:56.511Z,9.00
2022-10-30T09:30:24.761Z,6.82
2022-10-30T09:33:00.352Z,6.78
2022-10-30T09:35:29.909Z,6.78
2022-10-30T09:37:58.809Z,6.50
2022-10-30T09:40:36.975Z,6.60
2022-10-30T09:43:20.356Z,5.97
2022-10-30T09:46:02.819Z,6.15
2022-10-30T09:49:13.107Z,6.10
2022-10-30T09:52:05.711Z,6.47
2022-10-30T09:55:01.522Z,6.15
2022-10-30T09:57:31.754Z,5.87
2022-10-30T10:00:04.012Z,5.62
2022-10-30T10:02:52.181Z,5.82
2022-10-30T10:05:38.520Z,7.30
2022-10-30T10:08:11.703Z,8.23
2022-10-30T10:10:43.603Z,6.07
2022-10-30T10:13:27.087Z,7.62
2022-10-30T10:16:15.002Z,6.47
2022-10-30T10:18:46.116Z,7.03
2022-10-30T10:21:19.170Z,6.90
2022-10-30T10:23:51.909Z,6.03
2022-10-30T10:26:31.412Z,6.37
2022-10-30T10:29:10.172Z,4.95
2022-10-30T10:31:46.795Z,6.07
2022-10-30T10:34:38.416Z,8.65
2022-10-30T10:37:24.715Z,6.82
2022-10-30T10:40:13.919Z,7.60
2022-10-30T10:42:48.366Z,6.80
2022-10-30T10:45:32.589Z,4.80
2022-10-30T10:48:19.088Z,6.62
2022-10-30T10:50:57.421Z,7.22
2022-10-30T10:53:49.465Z,7.15
2022-10-30T10:56:17.850Z,6.10
2022-10-30T10:58:57.170Z,5.37
2022-10-30T11:02:11.883Z,6.05
2022-10-30T11:04:41.738Z,7.72
2022-10-30T11:07:22.749Z,5.00
2022-10-30T11:09:52.966Z,7.80
2022-10-30T11:12:23.119Z,8.10
2022-10-30T11:14:50.868Z,7.30
2022-10-30T11:17:25.440Z,7.75
2022-10-30T11:20:02.089Z,6.72
2022-10-30T11:22:33.881Z,5.37
2022-10-30T11:25:25.405Z,7.43
2022-10-30T11:27:58.378Z,6.72
2022-10-30T11:30:28.686Z,8.15
2022-10-30T11:32:57.620Z,6.07
2022-10-30T11:35:25.624Z,8.30
2022-10-30T11:38:13.856Z,8.38
2022-10-30T11:40:47.630Z,7.37
2022-10-30T11:43:20.619Z,5.70
2022-10-30T11:45:48.278Z,8.98
2022-10-30T11:48:27.229Z,6.70
2022-10-30T11:50:59.438Z,7.72
2022-10-30T11:53:35.187Z,9.73
2022-10-30T11:56:04.351Z,5.72
2022-10-30T11:58:36.634Z,7.50
2022-10-30T12:01:25.284Z,7.47
2022-10-30T12:03:54.771Z,5.70
2022-10-30T12:06:27.794Z,6.20
2022-10-30T12:08:58.511Z,5.68
2022-10-30T12:11:35.867Z,8.38
2022-10-30T12:14:04.223Z,8.02
2022-10-30T12:16:33.022Z,8.68
2022-10-30T12:19:09.567Z,7.25
2022-10-30T12:21:40.244Z,6.50
2022-10-30T12:24:21.796Z,5.22
2022-10-30T12:26:51.613Z,7.80
2022-10-30T12:29:24.307Z,7.30
2022-10-30T12:32:00.563Z,5.18
2022-10-30T12:34:40.224Z,6.22
2022-10-30T12:37:29.893Z,5.60
2022-10-30T12:40:01.780Z,7.50
2022-10-30T12:42:31.479Z,5.60
2022-10-30T12:45:13.786Z,5.45
2022-10-30T12:47:43.962Z,6.78
2022-10-30T12:50:24.449Z,6.87
2022-10-30T12:52:58.390Z,6.18
2022-10-30T12:55:31.840Z,5.78
2022-10-30T12:58:09.656Z,7.78
2022-10-30T13:00:43.201Z,8.52
2022-10-30T13:03:21.797Z,5.78
2022-10-30T13:05:53.685Z,6.60
2022-10-30T13:08:44.007Z,5.30
2022-10-30T13:11:22.204Z,8.73
2022-10-30T13:13:52.388Z,6.07
2022-10-30T13:16:26.056Z,7.10
2022-10-30T13:19:05.871Z,7.70
2022-10-30T13:21:38.296Z,6.97
2022-10-30T13:24:11.813Z,8.45
2022-10-30T13:26:55.799Z,4.50
2022-10-30T13:29:30.227Z,6.87
2022-10-30T13:32:27.077Z,5.60
2022-10-30T13:35:09.930Z,6.50
2022-10-30T13:37:44.164Z,6.37
2022-10-30T13:40:23.068Z,7.18
2022-10-30T13:43:25.780Z,8.70
2022-10-30T13:45:59.169Z,5.18
2022-10-30T13:48:45.575Z,7.20
2022-10-30T13:51:21.538Z,7.93
2022-10-30T13:54:00.437Z,6.68
2022-10-30T13:56:28.340Z,6.45
2022-10-30T13:59:20.796Z,5.07
2022-10-30T14:02:04.516Z,7.25
2022-10-30T14:04:56.707Z,6.90
2022-10-30T14:07:44.325Z,5.32
2022-10-30T14:10:45.642Z,8.10
2022-10-30T14:13:44.141Z,10.48
2022-10-30T14:16:53.764Z,6.37
2022-10-30T14:19:21.167Z,5.87
2022-10-30T14:21:55.894Z,5.93
2022-10-30T14:24:31.990Z,5.93
2022-10-30T14:27:05.554Z,6.75
2022-10-30T14:29:36.140Z,5.47
2022-10-30T14:32:23.735Z,5.50
2022-10-30T14:34:51.042Z,6.50
2022-10-30T14:37:38.685Z,6.60
2022-10-30T14:40:30.839Z,4.87
2022-10-30T14:43:10.205Z,4.85
2022-10-30T14:45:57.315Z,7.00
2022-10-30T14:49:04.241Z,6.32
2022-10-30T14:51:45.921Z,7.10
2022-10-30T14:54:33.426Z,5.35
2022-10-30T14:57:00.906Z,5.03
2022-10-30T14:59:33.460Z,7.25
2022-10-30T15:02:13.104Z,6.97
2022-10-30T15:04:43.985Z,6.87
2022-10-30T15:07:22.970Z,6.93
2022-10-30T15:10:16.243Z,8.13
2022-10-30T15:12:55.818Z,6.65
2022-10-30T15:15:26.233Z,8.77
2022-10-30T15:17:56.126Z,4.82
2022-10-30T15:20:26.100Z,7.37
2022-10-30T15:23:02.845Z,7.25
2022-10-30T15:25:39.767Z,6.97
2022-10-30T15:28:15.528Z,4.80
2022-10-30T15:31:02.457Z,6.05
2022-10-30T15:33:35.366Z,6.80
2022-10-30T15:36:02.973Z,7.10
2022-10-30T15:38:30.922Z,7.18
2022-10-30T15:41:02.685Z,7.22
2022-10-30T15:43:33.642Z,8.25
2022-10-30T15:46:01.424Z,6.93
2022-10-30T15:48:34.087Z,8.10
2022-10-30T15:51:17.288Z,6.43
2022-10-30T15:54:00.140Z,6.95
2022-10-30T15:56:33.831Z,5.70
2022-10-30T15:59:06.520Z,6.53
2022-10-30T16:01:43.802Z,7.60
2022-10-30T16:04:20.340Z,8.35
2022-10-30T16:06:51.685Z,7.03
2022-10-30T16:09:20.268Z,6.80
2022-10-30T16:11:48.730Z,6.32
2022-10-30T16:14:20.765Z,5.82
2022-10-30T16:16:48.671Z,6.70
2022-10-30T16:19:29.066Z,5.37
2022-10-30T16:21:58.756Z,6.57
2022-10-30T16:24:30.737Z,7.00
2022-10-30T16:27:18.144Z,6.40
2022-10-30T16:29:51.099Z,4.75
2022-10-30T16:32:21.841Z,6.35
2022-10-30T16:34:50.261Z,7.50
2022-10-30T16:37:21.082Z,6.93
2022-10-30T16:39:49.924Z,9.07
2022-10-30T16:42:21.887Z,10.35
2022-10-30T16:44:49.830Z,9.82
2022-10-30T16:47:17.375Z,7.68
2022-10-30T16:50:05.411Z,10.13
2022-10-30T16:52:35.575Z,7.20
2022-10-30T16:55:09.308Z,8.15
2022-10-30T16:57:41.687Z,6.95
2022-10-30T17:00:25.909Z,7.25
2022-10-30T17:02:57.091Z,7.57
2022-10-30T17:05:29.746Z,8.27
2022-10-30T17:08:00.471Z,8.82
2022-10-30T17:10:37.360Z,9.95
2022-10-30T17:13:31.347Z,6.20
2022-10-30T17:16:00.108Z,9.25
2022-10-30T17:18:31.518Z,8.30
2022-10-30T17:21:08.938Z,6.37
2022-10-30T17:23:37.506Z,7.35
2022-10-30T17:26:09.934Z,9.70
2022-10-30T17:28:39.184Z,9.07
2022-10-30T17:31:30.383Z,8.00
2022-10-30T17:34:14.895Z,5.37
2022-10-30T17:36:43.220Z,8.32
2022-10-30T17:39:11.093Z,8.00
2022-10-30T17:41:39.475Z,9.05
2022-10-30T17:44:07.920Z,10.57
2022-10-30T17:46:35.915Z,10.35
2022-10-30T17:49:03.547Z,11.55
2022-10-30T17:51:32.512Z,9.50
2022-10-30T17:54:01.633Z,7.75
2022-10-30T17:56:31.816Z,7.03
2022-10-30T17:59:00.559Z,6.60
2022-10-30T18:01:28.586Z,9.00
2022-10-30T18:03:56.607Z,7.80
2022-10-30T18:06:26.584Z,6.97
2022-10-30T18:08:55.200Z,6.43
2022-10-30T18:11:24.664Z,6.80
2022-10-30T18:13:52.472Z,10.20
2022-10-30T18:16:20.423Z,9.02
2022-10-30T18:18:48.231Z,9.02
2022-10-30T18:21:18.471Z,8.02
2022-10-30T18:23:52.384Z,6.68
2022-10-30T18:26:23.646Z,7.62
2022-10-30T18:28:51.477Z,7.20
2022-10-30T18:31:21.269Z,8.57
2022-10-30T18:33:49.168Z,7.75
2022-10-30T18:36:19.400Z,5.28
2022-10-30T18:38:46.968Z,7.60
2022-10-30T18:41:25.060Z,9.45
2022-10-30T18:43:52.951Z,8.80
2022-10-30T18:46:20.829Z,7.47
2022-10-30T18:48:48.656Z,7.65
2022-10-30T18:51:22.631Z,8.43
2022-10-30T18:53:53.651Z,5.53
2022-10-30T18:56:22.273Z,10.38
2022-10-30T18:58:54.874Z,9.90
2022-10-30T19:01:26.515Z,9.20
2022-10-30T19:03:54.652Z,9.15
2022-10-30T19:06:24.114Z,9.10
2022-10-30T19:08:51.802Z,9.55
2022-10-30T19:11:24.510Z,10.25
2022-10-30T19:13:55.139Z,9.48
2022-10-30T19:16:25.426Z,9.40
2022-10-30T19:18:53.369Z,8.60
2022-10-30T19:21:25.880Z,6.00
2022-10-30T19:23:56.127Z,6.90
2022-10-30T19:26:23.760Z,6.30
2022-10-30T19:28:51.524Z,8.80
2022-10-30T19:31:19.923Z,9.90
2022-10-30T19:33:51.381Z,9.23
2022-10-30T19:36:27.204Z,9.57
2022-10-30T19:38:55.953Z,8.98
2022-10-30T19:41:24.851Z,10.07
2022-10-30T19:43:54.063Z,8.77
2022-10-30T19:46:21.819Z,8.52
2022-10-30T19:48:58.699Z,8.95
2022-10-30T19:51:28.196Z,10.00
2022-10-30T19:53:56.340Z,10.23
2022-10-30T19:56:24.128Z,9.82
2022-10-30T19:58:51.753Z,10.68
2022-10-30T20:01:19.786Z,9.35
2022-10-30T20:03:47.775Z,6.97
2022-10-30T20:06:15.384Z,8.13
2022-10-30T20:08:43.987Z,7.25
2022-10-30T20:11:11.825Z,8.55
2022-10-30T20:13:39.436Z,9.23
2022-10-30T20:16:07.492Z,11.38
2022-10-30T20:18:36.533Z,9.23
2022-10-30T20:21:08.563Z,7.12
2022-10-30T20:23:37.025Z,8.23
2022-10-30T20:26:13.671Z,9.45
2022-10-30T20:28:42.423Z,9.35
2022-10-30T20:31:11.498Z,9.40
2022-10-30T20:33:39.281Z,7.28
2022-10-30T20:36:11.703Z,10.52
2022-10-30T20:38:40.266Z,8.20
2022-10-30T20:41:22.893Z,6.57
2022-10-30T20:43:50.709Z,9.27
2022-10-30T20:46:19.345Z,8.77
2022-10-30T20:48:47.347Z,7.82
2022-10-30T20:51:15.252Z,10.02
2022-10-30T20:53:43.181Z,8.75
2022-10-30T20:56:11.646Z,9.63
2022-10-30T20:58:39.737Z,10.70
2022-10-30T21:01:07.777Z,11.27
2022-10-30T21:03:35.265Z,15.30
2022-10-30T21:06:02.839Z,13.73
2022-10-30T21:08:34.132Z,15.20
2022-10-30T21:11:02.557Z,11.07
2022-10-30T21:13:30.547Z,7.80
2022-10-30T21:16:07.508Z,5.68
2022-10-30T21:18:35.421Z,8.77
2022-10-30T21:21:08.650Z,12.13
2022-10-30T21:23:36.502Z,8.93
2022-10-30T21:26:05.824Z,11.55
2022-10-30T21:28:33.526Z,10.73
2022-10-30T21:31:02.613Z,10.73
2022-10-30T21:33:34.150Z,10.20
2022-10-30T21:36:13.401Z,10.35
2022-10-30T21:38:42.192Z,9.05
2022-10-30T21:41:12.299Z,10.52
2022-10-30T21:43:39.794Z,9.57
2022-10-30T21:46:11.293Z,11.07
2022-10-30T21:48:39.148Z,9.82
2022-10-30T21:51:15.166Z,8.02
2022-10-30T21:53:43.795Z,7.75
2022-10-30T21:56:19.209Z,6.93
2022-10-30T21:58:47.371Z,6.10
2022-10-30T22:01:18.587Z,9.23
2022-10-30T22:03:46.927Z,10.18
2022-10-30T22:06:16.704Z,9.43
2022-10-30T22:08:51.577Z,9.68
2022-10-30T22:11:20.158Z,10.00
2022-10-30T22:13:48.343Z,9.30
2022-10-30T22:16:15.800Z,14.00
2022-10-30T22:18:43.695Z,11.12
2022-10-30T22:21:12.598Z,11.05
2022-10-30T22:23:40.503Z,10.18
2022-10-30T22:26:12.974Z,7.55
2022-10-30T22:28:41.047Z,10.43
2022-10-30T22:31:17.103Z,7.22
2022-10-30T22:33:44.955Z,9.90
2022-10-30T22:36:18.688Z,11.15
2022-10-30T22:38:46.731Z,10.00
2022-10-30T22:41:22.102Z,9.52
2022-10-30T22:43:49.570Z,8.35
2022-10-30T22:46:18.684Z,8.85
2022-10-30T22:48:46.232Z,7.72
2022-10-30T22:51:16.770Z,10.93
2022-10-30T22:53:46.510Z,9.55
2022-10-30T22:56:22.330Z,9.43
2022-10-30T22:58:50.769Z,10.05
2022-10-30T23:01:21.018Z,7.60
2022-10-30T23:03:48.514Z,9.75
2022-10-30T23:06:16.254Z,5.57
2022-10-30T23:08:43.784Z,10.20
2022-10-30T23:11:11.598Z,10.02
2022-10-30T23:13:40.501Z,9.88
2022-10-30T23:16:09.522Z,9.63
2022-10-30T23:18:36.989Z,8.68
2022-10-30T23:21:07.935Z,9.75
2022-10-30T23:23:38.965Z,9.52
2022-10-30T23:26:15.550Z,12.05
2022-10-30T23:28:43.606Z,9.73
2022-10-30T23:31:25.159Z,15.90
2022-10-30T23:33:54.773Z,9.73
2022-10-30T23:36:23.123Z,15.02
2022-10-30T23:39:01.336Z,9.13
2022-10-30T23:41:30.661Z,7.53
2022-10-30T23:43:59.893Z,8.63
2022-10-30T23:46:28.013Z,10.35
2022-10-30T23:48:55.793Z,9.07
2022-10-30T23:51:23.634Z,5.97
2022-10-30T23:53:51.377Z,6.47
2022-10-30T23:56:19.282Z,6.57
2022-10-30T23:58:49.028Z,10.02
